La Suprema — IBIL — position and weather

sailwx.info

Track history (hours):
 
Tides and Currents Weather Stations Pressure Air Temp Water Temp Dewpoint Dewpoint Depression Visibility Wind Speed Wind Dir Waves Ship Positions

La Suprema

Last reported at 2014-Aug-02 06:06 UTC. Time now 2014-Aug-02 06:37 UTC.
Position N 41°43' E 010°54'.

Length 211 m; draft 7.5 m.

Type: Passenger vessel. MMSI: 247083700.

Date/timePositionNaut miles runAvg speedWind from/ knotsBaromVisibWave heightAir tempDewpointWater temp
2014-Aug-02 06:06N 41°43' E 010°54'3924.7
2014-Aug-02 04:31N 41°09' E 011°19'17124.5
2014-Aug-01 21:34N 38°38' E 013°04'2524.8
2014-Aug-01 20:34N 38°17' E 013°21'10 9.4
2014-Aug-01 19:33N 38°08' E 013°22'0 0.0
2014-Aug-01 18:32N 38°08' E 013°22'0 0.0
2014-Aug-01 17:32N 38°08' E 013°22'0 0.0
2014-Aug-01 16:31N 38°08' E 013°22'0 0.0
2014-Aug-01 15:31N 38°08' E 013°22'0 0.0
2014-Aug-01 14:33N 38°08' E 013°22'1212.2
2014-Aug-01 13:34N 38°20' E 013°19'2221.7
2014-Aug-01 12:34N 38°38' E 013°04'31123.9
2014-Jul-31 23:31N 43°05' E 009°33'2424.7
2014-Jul-31 22:34N 43°28' E 009°24'2524.6
2014-Jul-31 21:34N 43°51' E 009°13'2525.0
2014-Jul-31 20:34N 44°15' E 009°01'1010.5
2014-Jul-31 19:34N 44°25' E 008°55'0 0.0
2014-Jul-31 18:33N 44°25' E 008°55'0 0.0
2014-Jul-31 17:33N 44°25' E 008°55'0 0.0
2014-Jul-31 16:33N 44°25' E 008°55'0 0.0
2014-Jul-31 15:33N 44°25' E 008°55'5 4.7
2014-Jul-31 14:33N 44°21' E 008°59'1818.5
2014-Jul-31 13:33N 44°04' E 009°08'2121.4
2014-Jul-31 12:33N 43°44' E 009°18'2322.7
2014-Jul-31 11:33N 43°22' E 009°29'8424.8
2014-Jul-31 08:11N 42°03' E 010°07'25023.6
2014-Jul-30 21:33N 38°31' E 013°01'2424.0
2014-Jul-30 20:34N 38°15' E 013°23'7 7.0
2014-Jul-30 19:33N 38°08' E 013°22'0 0.0
2014-Jul-30 18:33N 38°08' E 013°22'0 0.0
2014-Jul-30 17:34N 38°08' E 013°22'0 0.0
2014-Jul-30 16:34N 38°08' E 013°22'0 0.0
2014-Jul-30 15:34N 38°08' E 013°22'2 1.6
2014-Jul-30 14:33N 38°08' E 013°24'1918.8
2014-Jul-30 13:33N 38°26' E 013°15'29822.9
2014-Jul-30 00:31N 42°39' E 009°48'2424.5
2014-Jul-29 23:32N 43°01' E 009°36'2424.5
2014-Jul-29 22:34N 43°24' E 009°26'2524.7
2014-Jul-29 21:34N 43°48' E 009°15'2524.9
2014-Jul-29 20:34N 44°11' E 009°03'1514.7
2014-Jul-29 19:33N 44°25' E 008°55'0 0.0
2014-Jul-29 18:33N 44°25' E 008°55'0 0.0
2014-Jul-29 17:33N 44°25' E 008°55'0 0.0
2014-Jul-29 16:33N 44°25' E 008°55'0 0.0
2014-Jul-29 15:33N 44°25' E 008°55'1 1.1
2014-Jul-29 14:33N 44°24' E 008°56'1817.6
2014-Jul-29 13:33N 44°09' E 009°09'2121.2
2014-Jul-29 12:33N 43°51' E 009°24'2121.0
2014-Jul-29 11:33N 43°32' E 009°39'2121.0
2014-Jul-29 10:33N 43°14' E 009°53'31323.3
2014-Jul-28 21:07N 38°36' E 013°04'1425.3
2014-Jul-28 20:33N 38°25' E 013°15'1818.0
2014-Jul-28 19:33N 38°08' E 013°22'0 0.3
2014-Jul-28 18:33N 38°08' E 013°22'0 0.0
2014-Jul-28 17:34N 38°08' E 013°22'0 0.0
2014-Jul-28 16:33N 38°08' E 013°22'0 0.0
2014-Jul-28 15:34N 38°08' E 013°22'3 2.6
2014-Jul-28 14:33N 38°10' E 013°24'2120.6
2014-Jul-28 13:34N 38°28' E 013°12'27923.2
2014-Jul-28 01:33N 42°23' E 009°56'2424.5
2014-Jul-28 00:34N 42°46' E 009°44'1919.1
2014-Jul-27 23:34N 43°04' E 009°36'2424.5
2014-Jul-27 22:34N 43°27' E 009°24'2525.1
2014-Jul-27 21:34N 43°51' E 009°12'2525.5
2014-Jul-27 20:34N 44°15' E 009°01'1110.5
2014-Jul-27 19:33N 44°25' E 008°55'0 0.0
2014-Jul-27 18:33N 44°25' E 008°55'0 0.0
2014-Jul-27 17:33N 44°25' E 008°55'0 0.0
2014-Jul-27 16:33N 44°25' E 008°55'0 0.0
2014-Jul-27 15:33N 44°25' E 008°55'2 2.3
2014-Jul-27 14:33N 44°23' E 008°57'1919.5
2014-Jul-27 13:33N 44°06' E 009°11'2221.6
2014-Jul-27 12:33N 43°47' E 009°26'2221.9
2014-Jul-27 11:33N 43°28' E 009°41'2221.9
2014-Jul-27 10:33N 43°09' E 009°56'30322.8
2014-Jul-26 21:16N 38°42' E 013°03'1724.4
2014-Jul-26 20:33N 38°26' E 013°14'2020.3
2014-Jul-26 19:33N 38°07' E 013°23'1 0.8
2014-Jul-26 18:33N 38°08' E 013°22'0 0.0
2014-Jul-26 17:33N 38°08' E 013°22'0 0.0
2014-Jul-26 16:33N 38°08' E 013°22'0 0.0
2014-Jul-26 15:33N 38°08' E 013°22'2 1.7
2014-Jul-26 14:33N 38°08' E 013°24'1919.3
2014-Jul-26 13:34N 38°26' E 013°14'2221.7
2014-Jul-26 12:33N 38°44' E 012°58'2221.7
2014-Jul-26 11:33N 39°02' E 012°43'2121.7
2014-Jul-26 10:33N 39°20' E 012°29'12324.4
2014-Jul-26 05:32N 41°05' E 011°04'5524.3
2014-Jul-26 03:16N 41°51' E 010°24'1924.6
2014-Jul-26 02:29N 42°06' E 010°09'2224.2
2014-Jul-26 01:33N 42°26' E 009°55'3424.4
2014-Jul-26 00:10N 42°58' E 009°39'1424.0
2014-Jul-25 23:33N 43°11' E 009°31'2424.5
2014-Jul-25 22:34N 43°34' E 009°19'2424.4
2014-Jul-25 21:34N 43°57' E 009°07'2524.7
2014-Jul-25 20:33N 44°21' E 008°58'4 3.4
2014-Jul-25 19:18N 44°25' E 008°55'0 0.0
2014-Jul-25 15:33N 44°25' E 008°55'9 9.3
2014-Jul-25 14:33N 44°16' E 009°01'2121.4
2014-Jul-25 13:33N 43°56' E 009°11'2121.5
2014-Jul-25 12:33N 43°36' E 009°21'2221.6
2014-Jul-25 11:33N 43°16' E 009°32'32621.7
2014-Jul-24 20:33N 38°34' E 013°08'2222.0
2014-Jul-24 19:33N 38°15' E 013°23'7 7.2
2014-Jul-24 18:33N 38°08' E 013°22'0 0.0
2014-Jul-24 17:33N 38°08' E 013°22'0 0.0
2014-Jul-24 16:33N 38°08' E 013°22'0 0.0
2014-Jul-24 15:33N 38°08' E 013°22'3 3.1
2014-Jul-24 14:33N 38°10' E 013°24'2120.7
2014-Jul-24 13:33N 38°28' E 013°10'25622.7
2014-Jul-24 02:17N 42°05' E 010°12'1824.6
2014-Jul-24 01:33N 42°20' E 009°59'2424.4
2014-Jul-24 00:34N 42°42' E 009°46'2424.1
2014-Jul-23 23:33N 43°05' E 009°35'2424.6
2014-Jul-23 22:34N 43°28' E 009°25'2524.6
2014-Jul-23 21:34N 43°52' E 009°14'2424.4
2014-Jul-23 20:33N 44°14' E 009°01'1110.5
2014-Jul-23 19:30N 44°25' E 008°55'0 0.0
2014-Jul-23 17:23N 44°25' E 008°55'0 0.0
2014-Jul-23 16:04N 44°25' E 008°55'0 0.0
2014-Jul-23 15:28N 44°25' E 008°55'1 1.3
2014-Jul-23 14:33N 44°24' E 008°56'1717.6
2014-Jul-23 13:33N 44°09' E 009°08'2121.2
2014-Jul-23 12:33N 43°50' E 009°23'2121.2
2014-Jul-23 11:33N 43°32' E 009°37'2121.3
2014-Jul-23 10:33N 43°14' E 009°53'2120.9
2014-Jul-23 09:33N 42°54' E 010°00'  
Track history (hours):
 
Tides and Currents Weather Stations Pressure Air Temp Water Temp Dewpoint Dewpoint Depression Visibility Wind Speed Wind Dir Waves Ship Positions

La Suprema

Last reported at 2014-Aug-02 06:06 UTC. Time now 2014-Aug-02 06:37 UTC.
Position N 41°43' E 010°54'.

Length 211 m; draft 7.5 m.

Type: Passenger vessel. MMSI: 247083700.

Date/timePositionNaut miles runAvg speedWind from/ knotsBaromVisibWave heightAir tempDewpointWater temp
2014-Aug-02 06:06N 41°43' E 010°54'3924.7
2014-Aug-02 04:31N 41°09' E 011°19'17124.5
2014-Aug-01 21:34N 38°38' E 013°04'2524.8
2014-Aug-01 20:34N 38°17' E 013°21'10 9.4
2014-Aug-01 19:33N 38°08' E 013°22'0 0.0
2014-Aug-01 18:32N 38°08' E 013°22'0 0.0
2014-Aug-01 17:32N 38°08' E 013°22'0 0.0
2014-Aug-01 16:31N 38°08' E 013°22'0 0.0
2014-Aug-01 15:31N 38°08' E 013°22'0 0.0
2014-Aug-01 14:33N 38°08' E 013°22'1212.2
2014-Aug-01 13:34N 38°20' E 013°19'2221.7
2014-Aug-01 12:34N 38°38' E 013°04'31123.9
2014-Jul-31 23:31N 43°05' E 009°33'2424.7
2014-Jul-31 22:34N 43°28' E 009°24'2524.6
2014-Jul-31 21:34N 43°51' E 009°13'2525.0
2014-Jul-31 20:34N 44°15' E 009°01'1010.5
2014-Jul-31 19:34N 44°25' E 008°55'0 0.0
2014-Jul-31 18:33N 44°25' E 008°55'0 0.0
2014-Jul-31 17:33N 44°25' E 008°55'0 0.0
2014-Jul-31 16:33N 44°25' E 008°55'0 0.0
2014-Jul-31 15:33N 44°25' E 008°55'5 4.7
2014-Jul-31 14:33N 44°21' E 008°59'1818.5
2014-Jul-31 13:33N 44°04' E 009°08'2121.4
2014-Jul-31 12:33N 43°44' E 009°18'2322.7
2014-Jul-31 11:33N 43°22' E 009°29'8424.8
2014-Jul-31 08:11N 42°03' E 010°07'25023.6
2014-Jul-30 21:33N 38°31' E 013°01'2424.0
2014-Jul-30 20:34N 38°15' E 013°23'7 7.0
2014-Jul-30 19:33N 38°08' E 013°22'0 0.0
2014-Jul-30 18:33N 38°08' E 013°22'0 0.0
2014-Jul-30 17:34N 38°08' E 013°22'0 0.0
2014-Jul-30 16:34N 38°08' E 013°22'0 0.0
2014-Jul-30 15:34N 38°08' E 013°22'2 1.6
2014-Jul-30 14:33N 38°08' E 013°24'1918.8
2014-Jul-30 13:33N 38°26' E 013°15'29822.9
2014-Jul-30 00:31N 42°39' E 009°48'2424.5
2014-Jul-29 23:32N 43°01' E 009°36'2424.5
2014-Jul-29 22:34N 43°24' E 009°26'2524.7
2014-Jul-29 21:34N 43°48' E 009°15'2524.9
2014-Jul-29 20:34N 44°11' E 009°03'1514.7
2014-Jul-29 19:33N 44°25' E 008°55'0 0.0
2014-Jul-29 18:33N 44°25' E 008°55'0 0.0
2014-Jul-29 17:33N 44°25' E 008°55'0 0.0
2014-Jul-29 16:33N 44°25' E 008°55'0 0.0
2014-Jul-29 15:33N 44°25' E 008°55'1 1.1
2014-Jul-29 14:33N 44°24' E 008°56'1817.6
2014-Jul-29 13:33N 44°09' E 009°09'2121.2
2014-Jul-29 12:33N 43°51' E 009°24'2121.0
2014-Jul-29 11:33N 43°32' E 009°39'2121.0
2014-Jul-29 10:33N 43°14' E 009°53'31323.3
2014-Jul-28 21:07N 38°36' E 013°04'1425.3
2014-Jul-28 20:33N 38°25' E 013°15'1818.0
2014-Jul-28 19:33N 38°08' E 013°22'0 0.3
2014-Jul-28 18:33N 38°08' E 013°22'0 0.0
2014-Jul-28 17:34N 38°08' E 013°22'0 0.0
2014-Jul-28 16:33N 38°08' E 013°22'0 0.0
2014-Jul-28 15:34N 38°08' E 013°22'3 2.6
2014-Jul-28 14:33N 38°10' E 013°24'2120.6
2014-Jul-28 13:34N 38°28' E 013°12'27923.2
2014-Jul-28 01:33N 42°23' E 009°56'2424.5
2014-Jul-28 00:34N 42°46' E 009°44'1919.1
2014-Jul-27 23:34N 43°04' E 009°36'2424.5
2014-Jul-27 22:34N 43°27' E 009°24'2525.1
2014-Jul-27 21:34N 43°51' E 009°12'2525.5
2014-Jul-27 20:34N 44°15' E 009°01'1110.5
2014-Jul-27 19:33N 44°25' E 008°55'0 0.0
2014-Jul-27 18:33N 44°25' E 008°55'0 0.0
2014-Jul-27 17:33N 44°25' E 008°55'0 0.0
2014-Jul-27 16:33N 44°25' E 008°55'0 0.0
2014-Jul-27 15:33N 44°25' E 008°55'2 2.3
2014-Jul-27 14:33N 44°23' E 008°57'1919.5
2014-Jul-27 13:33N 44°06' E 009°11'2221.6
2014-Jul-27 12:33N 43°47' E 009°26'2221.9
2014-Jul-27 11:33N 43°28' E 009°41'2221.9
2014-Jul-27 10:33N 43°09' E 009°56'30322.8
2014-Jul-26 21:16N 38°42' E 013°03'1724.4
2014-Jul-26 20:33N 38°26' E 013°14'2020.3
2014-Jul-26 19:33N 38°07' E 013°23'1 0.8
2014-Jul-26 18:33N 38°08' E 013°22'0 0.0
2014-Jul-26 17:33N 38°08' E 013°22'0 0.0
2014-Jul-26 16:33N 38°08' E 013°22'0 0.0
2014-Jul-26 15:33N 38°08' E 013°22'2 1.7
2014-Jul-26 14:33N 38°08' E 013°24'1919.3
2014-Jul-26 13:34N 38°26' E 013°14'2221.7
2014-Jul-26 12:33N 38°44' E 012°58'2221.7
2014-Jul-26 11:33N 39°02' E 012°43'2121.7
2014-Jul-26 10:33N 39°20' E 012°29'12324.4
2014-Jul-26 05:32N 41°05' E 011°04'5524.3
2014-Jul-26 03:16N 41°51' E 010°24'1924.6
2014-Jul-26 02:29N 42°06' E 010°09'2224.2
2014-Jul-26 01:33N 42°26' E 009°55'3424.4
2014-Jul-26 00:10N 42°58' E 009°39'1424.0
2014-Jul-25 23:33N 43°11' E 009°31'2424.5
2014-Jul-25 22:34N 43°34' E 009°19'2424.4
2014-Jul-25 21:34N 43°57' E 009°07'2524.7
2014-Jul-25 20:33N 44°21' E 008°58'4 3.4
2014-Jul-25 19:18N 44°25' E 008°55'0 0.0
2014-Jul-25 15:33N 44°25' E 008°55'9 9.3
2014-Jul-25 14:33N 44°16' E 009°01'2121.4
2014-Jul-25 13:33N 43°56' E 009°11'2121.5
2014-Jul-25 12:33N 43°36' E 009°21'2221.6
2014-Jul-25 11:33N 43°16' E 009°32'32621.7
2014-Jul-24 20:33N 38°34' E 013°08'2222.0
2014-Jul-24 19:33N 38°15' E 013°23'7 7.2
2014-Jul-24 18:33N 38°08' E 013°22'0 0.0
2014-Jul-24 17:33N 38°08' E 013°22'0 0.0
2014-Jul-24 16:33N 38°08' E 013°22'0 0.0
2014-Jul-24 15:33N 38°08' E 013°22'3 3.1
2014-Jul-24 14:33N 38°10' E 013°24'2120.7
2014-Jul-24 13:33N 38°28' E 013°10'25622.7
2014-Jul-24 02:17N 42°05' E 010°12'1824.6
2014-Jul-24 01:33N 42°20' E 009°59'2424.4
2014-Jul-24 00:34N 42°42' E 009°46'2424.1
2014-Jul-23 23:33N 43°05' E 009°35'2424.6
2014-Jul-23 22:34N 43°28' E 009°25'2524.6
2014-Jul-23 21:34N 43°52' E 009°14'2424.4
2014-Jul-23 20:33N 44°14' E 009°01'1110.5
2014-Jul-23 19:30N 44°25' E 008°55'0 0.0
2014-Jul-23 17:23N 44°25' E 008°55'0 0.0
2014-Jul-23 16:04N 44°25' E 008°55'0 0.0
2014-Jul-23 15:28N 44°25' E 008°55'1 1.3
2014-Jul-23 14:33N 44°24' E 008°56'1717.6
2014-Jul-23 13:33N 44°09' E 009°08'2121.2
2014-Jul-23 12:33N 43°50' E 009°23'2121.2
2014-Jul-23 11:33N 43°32' E 009°37'2121.3
2014-Jul-23 10:33N 43°14' E 009°53'2120.9
2014-Jul-23 09:33N 42°54' E 010°00'  

Dump ship's entire track history